createdAt,value
2023-03-11T00:00:40.632Z,0.40
2023-03-11T00:03:09.362Z,0.50
2023-03-11T00:05:38.148Z,0.43
2023-03-11T00:08:06.609Z,0.40
2023-03-11T00:10:35.605Z,0.47
2023-03-11T00:13:03.753Z,0.40
2023-03-11T00:15:31.442Z,0.40
2023-03-11T00:18:00.218Z,0.45
2023-03-11T00:20:28.923Z,0.30
2023-03-11T00:22:56.417Z,0.35
2023-03-11T00:25:25.534Z,0.50
2023-03-11T00:27:52.951Z,0.40
2023-03-11T00:30:21.182Z,0.40
2023-03-11T00:32:49.078Z,0.40
2023-03-11T00:35:19.322Z,0.50
2023-03-11T00:37:47.749Z,0.50
2023-03-11T00:40:16.316Z,0.50
2023-03-11T00:42:43.870Z,0.40
2023-03-11T00:45:11.928Z,0.43
2023-03-11T00:47:39.712Z,0.47
2023-03-11T00:50:08.107Z,0.40
2023-03-11T00:52:36.880Z,0.40
2023-03-11T00:55:05.791Z,0.43
2023-03-11T00:57:34.963Z,0.40
2023-03-11T01:00:03.259Z,0.50
2023-03-11T01:02:31.151Z,0.50
2023-03-11T01:04:58.584Z,0.50
2023-03-11T01:07:26.035Z,0.50
2023-03-11T01:09:54.847Z,0.50
2023-03-11T01:12:22.299Z,0.40
2023-03-11T01:14:49.771Z,0.60
2023-03-11T01:17:17.228Z,0.50
2023-03-11T01:19:44.822Z,0.40
2023-03-11T01:22:12.244Z,0.50
2023-03-11T01:24:39.671Z,0.50
2023-03-11T01:27:08.424Z,0.50
2023-03-11T01:29:36.204Z,0.45
2023-03-11T01:32:04.402Z,0.50
2023-03-11T01:34:33.422Z,0.55
2023-03-11T01:37:01.316Z,0.40
2023-03-11T01:39:28.742Z,0.50
2023-03-11T01:41:56.247Z,0.50
2023-03-11T01:44:25.236Z,0.50
2023-03-11T01:47:12.856Z,0.40
2023-03-11T01:49:42.238Z,0.50
2023-03-11T01:52:09.882Z,0.40
2023-03-11T01:54:45.342Z,0.50
2023-03-11T01:57:13.982Z,0.43
2023-03-11T01:59:46.599Z,0.43
2023-03-11T02:02:17.626Z,0.50
2023-03-11T02:04:45.883Z,0.40
2023-03-11T02:07:13.855Z,0.40
2023-03-11T02:09:41.475Z,0.30
2023-03-11T02:12:10.238Z,0.40
2023-03-11T02:14:38.626Z,0.40
2023-03-11T02:17:08.653Z,0.47
2023-03-11T02:19:39.219Z,0.40
2023-03-11T02:22:07.101Z,0.40
2023-03-11T02:24:39.951Z,0.50
2023-03-11T02:27:10.162Z,0.40
2023-03-11T02:29:38.737Z,0.52
2023-03-11T02:32:07.937Z,0.50
2023-03-11T02:34:37.464Z,0.47
2023-03-11T02:37:05.803Z,0.40
2023-03-11T02:39:34.983Z,0.50
2023-03-11T02:42:05.461Z,0.60
2023-03-11T02:44:34.439Z,0.60
2023-03-11T02:47:02.123Z,0.60
2023-03-11T02:49:30.978Z,0.60
2023-03-11T02:51:58.428Z,0.50
2023-03-11T02:54:25.878Z,0.40
2023-03-11T02:56:53.372Z,0.60
2023-03-11T02:59:20.814Z,0.65
2023-03-11T03:01:49.996Z,0.40
2023-03-11T03:04:17.654Z,0.50
2023-03-11T03:06:45.140Z,0.50
2023-03-11T03:09:12.770Z,0.40
2023-03-11T03:11:40.197Z,0.50
2023-03-11T03:14:07.800Z,0.50
2023-03-11T03:16:35.315Z,0.57
2023-03-11T03:19:04.406Z,0.50
2023-03-11T03:21:31.858Z,0.40
2023-03-11T03:23:59.606Z,0.40
2023-03-11T03:26:27.207Z,0.55
2023-03-11T03:28:54.849Z,0.50
2023-03-11T03:31:22.415Z,0.40
2023-03-11T03:33:49.954Z,0.52
2023-03-11T03:36:18.997Z,0.65
2023-03-11T03:38:54.443Z,0.50
2023-03-11T03:41:22.500Z,0.55
2023-03-11T03:43:50.354Z,0.52
2023-03-11T03:46:17.993Z,0.68
2023-03-11T03:48:48.451Z,0.50
2023-03-11T03:51:16.380Z,0.50
2023-03-11T03:53:59.027Z,0.73
2023-03-11T03:56:27.349Z,0.55
2023-03-11T03:58:55.237Z,0.50
2023-03-11T04:01:25.201Z,0.50
2023-03-11T04:03:53.001Z,0.70
2023-03-11T04:06:21.513Z,0.70
2023-03-11T04:08:55.465Z,0.53
2023-03-11T04:11:29.204Z,0.60
2023-03-11T04:13:57.149Z,0.60
2023-03-11T04:16:25.103Z,0.50
2023-03-11T04:18:58.975Z,0.60
2023-03-11T04:21:26.612Z,0.63
2023-03-11T04:23:55.460Z,0.70
2023-03-11T04:26:29.875Z,0.57
2023-03-11T04:28:57.425Z,0.60
2023-03-11T04:31:26.755Z,0.63
2023-03-11T04:33:54.764Z,0.70
2023-03-11T04:36:22.423Z,0.53
2023-03-11T04:38:51.557Z,0.60
2023-03-11T04:41:21.628Z,0.77
2023-03-11T04:43:50.913Z,0.63
2023-03-11T04:46:18.493Z,0.50
2023-03-11T04:48:46.036Z,0.80
2023-03-11T04:51:13.770Z,0.60
2023-03-11T04:53:41.278Z,0.50
2023-03-11T04:56:09.040Z,0.50
2023-03-11T04:58:38.518Z,0.80
2023-03-11T05:01:07.667Z,0.50
2023-03-11T05:03:35.650Z,0.70
2023-03-11T05:06:03.237Z,0.70
2023-03-11T05:08:31.046Z,0.60
2023-03-11T05:10:58.845Z,0.70
2023-03-11T05:13:26.323Z,0.70
2023-03-11T05:15:54.253Z,0.60
2023-03-11T05:18:23.235Z,0.60
2023-03-11T05:20:52.100Z,0.53
2023-03-11T05:23:23.112Z,0.70
2023-03-11T05:25:50.548Z,0.67
2023-03-11T05:28:18.549Z,0.60
2023-03-11T05:30:51.260Z,0.70
2023-03-11T05:33:19.536Z,0.70
2023-03-11T05:35:48.921Z,0.40
2023-03-11T05:38:16.592Z,0.60
2023-03-11T05:40:44.707Z,0.60
2023-03-11T05:43:12.236Z,0.50
2023-03-11T05:45:42.417Z,0.50
2023-03-11T05:48:09.893Z,0.60
2023-03-11T05:50:38.841Z,0.70
2023-03-11T05:53:09.131Z,0.50
2023-03-11T05:55:36.585Z,0.60
2023-03-11T05:58:04.539Z,0.52
2023-03-11T06:00:32.272Z,0.60
2023-03-11T06:03:02.735Z,0.50
2023-03-11T06:05:30.469Z,0.60
2023-03-11T06:07:58.344Z,0.50
2023-03-11T06:10:27.256Z,0.50
2023-03-11T06:12:54.797Z,0.40
2023-03-11T06:15:33.379Z,0.43
2023-03-11T06:18:00.860Z,0.60
2023-03-11T06:20:28.967Z,0.55
2023-03-11T06:22:56.867Z,0.40
2023-03-11T06:25:26.779Z,0.55
2023-03-11T06:27:55.403Z,0.50
2023-03-11T06:30:24.674Z,0.60
2023-03-11T06:32:59.342Z,0.50
2023-03-11T06:35:26.967Z,0.60
2023-03-11T06:37:56.072Z,0.50
2023-03-11T06:40:23.580Z,0.60
2023-03-11T06:42:52.487Z,0.50
2023-03-11T06:45:22.247Z,0.55
2023-03-11T06:47:50.511Z,0.50
2023-03-11T06:50:18.187Z,0.60
2023-03-11T06:52:45.740Z,0.70
2023-03-11T06:55:13.199Z,0.70
2023-03-11T06:57:40.684Z,0.50
2023-03-11T07:00:13.021Z,0.50
2023-03-11T07:02:43.473Z,0.60
2023-03-11T07:05:12.443Z,0.55
2023-03-11T07:07:40.436Z,0.40
2023-03-11T07:10:08.216Z,0.30
2023-03-11T07:12:36.371Z,0.30
2023-03-11T07:15:05.502Z,0.38
2023-03-11T07:17:37.704Z,0.30
2023-03-11T07:20:05.674Z,0.40
2023-03-11T07:22:33.075Z,0.30
2023-03-11T07:25:00.536Z,0.40
2023-03-11T07:27:28.506Z,0.30
2023-03-11T07:29:55.972Z,0.38
2023-03-11T07:32:29.585Z,0.35
2023-03-11T07:34:59.836Z,0.30
2023-03-11T07:37:27.265Z,0.30
2023-03-11T07:39:54.722Z,0.30
2023-03-11T07:42:22.242Z,0.40
2023-03-11T07:44:51.415Z,0.30
2023-03-11T07:47:18.878Z,0.30
2023-03-11T07:49:46.359Z,0.40
2023-03-11T07:52:15.150Z,0.20
2023-03-11T07:54:42.925Z,0.40
2023-03-11T07:57:16.878Z,0.20
2023-03-11T07:59:44.638Z,0.20
2023-03-11T08:02:12.240Z,0.10
2023-03-11T08:04:40.023Z,0.20
2023-03-11T08:07:07.567Z,0.15
2023-03-11T08:09:36.955Z,0.10
2023-03-11T08:12:04.567Z,0.10
2023-03-11T08:14:32.010Z,0.10
2023-03-11T08:16:59.484Z,0.10
2023-03-11T08:19:27.010Z,0.10
2023-03-11T08:21:54.479Z,0.10
2023-03-11T08:24:21.909Z,0.10
2023-03-11T08:26:50.704Z,0.10
2023-03-11T08:29:18.105Z,0.10
2023-03-11T08:31:45.532Z,0.10
2023-03-11T08:34:13.052Z,0.20
2023-03-11T08:36:40.713Z,0.20
2023-03-11T08:39:08.209Z,0.20
2023-03-11T08:41:36.304Z,0.20
2023-03-11T08:44:05.372Z,0.20
2023-03-11T08:46:34.360Z,0.30
2023-03-11T08:49:02.949Z,0.20
2023-03-11T08:51:31.094Z,0.30
2023-03-11T08:53:58.595Z,0.20
2023-03-11T08:56:26.359Z,0.20
2023-03-11T08:58:54.052Z,0.20
2023-03-11T09:01:47.764Z,0.20
2023-03-11T09:04:16.596Z,0.20
2023-03-11T09:06:44.395Z,0.20
2023-03-11T09:09:12.083Z,0.15
2023-03-11T09:11:40.469Z,0.20
2023-03-11T09:14:07.943Z,0.20
2023-03-11T09:16:35.432Z,0.10
2023-03-11T09:19:06.869Z,0.17
2023-03-11T09:21:35.878Z,0.20
2023-03-11T09:24:04.723Z,0.10
2023-03-11T09:26:32.456Z,0.28
2023-03-11T09:28:59.980Z,0.30
2023-03-11T09:31:27.475Z,0.28
2023-03-11T09:33:56.238Z,0.40
2023-03-11T09:36:23.758Z,0.40
2023-03-11T09:38:52.502Z,0.30
2023-03-11T09:41:23.658Z,0.40
2023-03-11T09:43:56.712Z,0.40
2023-03-11T09:46:49.165Z,0.30
2023-03-11T09:49:22.139Z,0.40
2023-03-11T09:51:51.892Z,0.40
2023-03-11T09:54:21.224Z,0.30
2023-03-11T09:56:48.747Z,0.40
2023-03-11T09:59:18.405Z,0.40
2023-03-11T10:01:47.670Z,0.30
2023-03-11T10:04:17.652Z,0.35
2023-03-11T10:06:46.004Z,0.30
2023-03-11T10:09:26.217Z,0.30
2023-03-11T10:12:01.700Z,0.30
2023-03-11T10:14:37.113Z,0.40
2023-03-11T10:17:06.589Z,0.30
2023-03-11T10:19:39.569Z,0.30
2023-03-11T10:22:13.616Z,0.40
2023-03-11T10:24:46.098Z,0.30
2023-03-11T10:27:17.941Z,0.35
2023-03-11T10:29:49.319Z,0.30
2023-03-11T10:32:20.182Z,0.30
2023-03-11T10:34:49.512Z,0.30
2023-03-11T10:37:18.989Z,0.30
2023-03-11T10:39:47.409Z,0.30
2023-03-11T10:42:18.644Z,0.30
2023-03-11T10:44:51.103Z,0.30
2023-03-11T10:47:21.003Z,0.40
2023-03-11T10:49:48.429Z,0.35
2023-03-11T10:52:16.007Z,0.40
2023-03-11T10:54:46.231Z,0.35
2023-03-11T10:57:25.497Z,0.40
2023-03-11T10:59:53.711Z,0.30
2023-03-11T11:02:26.423Z,0.30
2023-03-11T11:05:05.604Z,0.38
2023-03-11T11:07:34.103Z,0.40
2023-03-11T11:10:13.944Z,0.30
2023-03-11T11:12:51.913Z,0.30
2023-03-11T11:15:21.902Z,0.30
2023-03-11T11:17:49.753Z,0.30
2023-03-11T11:20:18.769Z,0.40
2023-03-11T11:22:50.573Z,0.40
2023-03-11T11:25:34.844Z,0.30
2023-03-11T11:28:05.176Z,0.32
2023-03-11T11:30:32.998Z,0.40
2023-03-11T11:33:21.071Z,0.30
2023-03-11T11:35:50.314Z,0.30
2023-03-11T11:38:17.782Z,0.30
2023-03-11T11:40:45.250Z,0.30
2023-03-11T11:43:17.322Z,0.40
2023-03-11T11:45:47.044Z,0.30
2023-03-11T11:48:18.455Z,0.40
2023-03-11T11:50:49.306Z,0.30
2023-03-11T11:53:22.436Z,0.30
2023-03-11T11:55:52.474Z,0.30
2023-03-11T11:58:21.808Z,0.30
2023-03-11T12:00:53.029Z,0.30
2023-03-11T12:03:50.520Z,0.40
2023-03-11T12:06:21.615Z,0.38
2023-03-11T12:08:53.589Z,0.40
2023-03-11T12:11:24.942Z,0.40
2023-03-11T12:14:01.997Z,0.35
2023-03-11T12:16:35.484Z,0.30
2023-03-11T12:19:07.726Z,0.40
2023-03-11T12:21:43.293Z,0.40
2023-03-11T12:24:16.816Z,0.30
2023-03-11T12:26:46.520Z,0.30
2023-03-11T12:29:21.397Z,0.30
2023-03-11T12:31:49.207Z,0.30
2023-03-11T12:34:20.295Z,0.30
2023-03-11T12:36:48.769Z,0.40
2023-03-11T12:39:24.776Z,0.30
2023-03-11T12:42:07.081Z,0.30
2023-03-11T12:44:35.849Z,0.30
2023-03-11T12:47:05.214Z,0.30
2023-03-11T12:49:33.118Z,0.30
2023-03-11T12:52:17.172Z,0.30
2023-03-11T12:54:45.329Z,0.30
2023-03-11T12:57:27.586Z,0.30
2023-03-11T13:00:17.409Z,0.40
2023-03-11T13:02:54.078Z,0.32
2023-03-11T13:05:24.644Z,0.40
2023-03-11T13:07:52.585Z,0.40
2023-03-11T13:10:34.972Z,0.30
2023-03-11T13:13:03.201Z,0.38
2023-03-11T13:15:34.552Z,0.40
2023-03-11T13:18:02.916Z,0.40
2023-03-11T13:20:44.141Z,0.40
2023-03-11T13:23:22.346Z,0.40
2023-03-11T13:26:03.478Z,0.40
2023-03-11T13:28:45.070Z,0.40
2023-03-11T13:31:22.527Z,0.40
2023-03-11T13:33:51.172Z,0.30
2023-03-11T13:36:25.473Z,0.30
2023-03-11T13:39:01.604Z,0.30
2023-03-11T13:41:31.279Z,0.30
2023-03-11T13:44:02.017Z,0.35
2023-03-11T13:46:32.260Z,0.40
2023-03-11T13:49:03.780Z,0.40
2023-03-11T13:51:36.165Z,0.30
2023-03-11T13:54:06.171Z,0.32
2023-03-11T13:56:35.366Z,0.32
2023-03-11T13:59:17.824Z,0.38
2023-03-11T14:01:51.267Z,0.30
2023-03-11T14:04:21.389Z,0.45
2023-03-11T14:06:49.692Z,0.40
2023-03-11T14:09:19.863Z,0.40
2023-03-11T14:11:48.818Z,0.30
2023-03-11T14:14:32.885Z,0.30
2023-03-11T14:17:03.932Z,0.30
2023-03-11T14:19:31.351Z,0.40
2023-03-11T14:21:58.843Z,0.40
2023-03-11T14:24:27.278Z,0.30
2023-03-11T14:26:56.241Z,0.40
2023-03-11T14:29:28.906Z,0.38
2023-03-11T14:31:56.508Z,0.40
2023-03-11T14:34:27.361Z,0.30
2023-03-11T14:36:56.944Z,0.40
2023-03-11T14:39:25.971Z,0.30
2023-03-11T14:41:54.652Z,0.35
2023-03-11T14:44:22.544Z,0.30
2023-03-11T14:46:50.664Z,0.40
2023-03-11T14:49:21.188Z,0.40
2023-03-11T14:51:57.466Z,0.30
2023-03-11T14:54:26.378Z,0.40
2023-03-11T14:56:55.750Z,0.40
2023-03-11T14:59:26.732Z,0.30
2023-03-11T15:01:54.780Z,0.30
2023-03-11T15:04:27.368Z,0.40
2023-03-11T15:06:56.436Z,0.30
2023-03-11T15:09:24.898Z,0.40
2023-03-11T15:11:55.139Z,0.30
2023-03-11T15:14:23.290Z,0.40
2023-03-11T15:16:51.001Z,0.30
2023-03-11T15:19:22.890Z,0.38
2023-03-11T15:21:51.224Z,0.30
2023-03-11T15:24:21.386Z,0.40
2023-03-11T15:26:54.706Z,0.40
2023-03-11T15:29:24.153Z,0.30
2023-03-11T15:31:51.592Z,0.30
2023-03-11T15:34:25.138Z,0.40
2023-03-11T15:36:57.082Z,0.30
2023-03-11T15:39:28.731Z,0.40
2023-03-11T15:42:00.294Z,0.40
2023-03-11T15:44:30.405Z,0.30
2023-03-11T15:46:59.568Z,0.40
2023-03-11T15:49:27.582Z,0.30
2023-03-11T15:51:58.601Z,0.30
2023-03-11T15:54:26.069Z,0.30
2023-03-11T15:56:55.818Z,0.40
2023-03-11T15:59:23.431Z,0.40
2023-03-11T16:01:50.923Z,0.35
2023-03-11T16:04:19.013Z,0.30
2023-03-11T16:06:53.920Z,0.40
2023-03-11T16:09:31.573Z,0.40
2023-03-11T16:12:00.456Z,0.40
2023-03-11T16:14:27.956Z,0.50
2023-03-11T16:16:56.809Z,0.40
2023-03-11T16:19:24.595Z,0.30
2023-03-11T16:21:52.059Z,0.40
2023-03-11T16:24:21.721Z,0.40
2023-03-11T16:26:51.473Z,0.30
2023-03-11T16:29:20.554Z,0.43
2023-03-11T16:31:49.202Z,0.40
2023-03-11T16:34:16.648Z,0.40
2023-03-11T16:36:44.049Z,0.40
2023-03-11T16:39:11.472Z,0.40
2023-03-11T16:41:41.363Z,0.40
2023-03-11T16:44:09.864Z,0.35
2023-03-11T16:46:38.843Z,0.40
2023-03-11T16:49:06.328Z,0.45
2023-03-11T16:51:34.006Z,0.45
2023-03-11T16:54:01.442Z,0.40
2023-03-11T16:56:28.837Z,0.40
2023-03-11T16:58:56.258Z,0.40
2023-03-11T17:01:23.742Z,0.40
2023-03-11T17:03:53.054Z,0.38
2023-03-11T17:06:21.318Z,0.40
2023-03-11T17:08:49.809Z,0.50
2023-03-11T17:11:17.632Z,0.50
2023-03-11T17:13:45.110Z,0.45
2023-03-11T17:16:12.640Z,0.40
2023-03-11T17:18:40.523Z,0.40
2023-03-11T17:21:10.708Z,0.50
2023-03-11T17:23:38.174Z,0.40
2023-03-11T17:26:08.664Z,0.40
2023-03-11T17:28:36.450Z,0.40
2023-03-11T17:31:06.509Z,0.40
2023-03-11T17:33:34.158Z,0.50
2023-03-11T17:36:02.165Z,0.50
2023-03-11T17:38:31.074Z,0.60
2023-03-11T17:40:58.557Z,0.50
2023-03-11T17:43:25.987Z,0.50
2023-03-11T17:45:53.731Z,0.40
2023-03-11T17:48:21.953Z,0.40
2023-03-11T17:50:49.401Z,0.50
2023-03-11T17:53:16.815Z,0.50
2023-03-11T17:55:45.587Z,0.50
2023-03-11T17:58:13.082Z,0.40
2023-03-11T18:00:40.529Z,0.50
2023-03-11T18:03:07.978Z,0.40
2023-03-11T18:05:37.605Z,0.35
2023-03-11T18:08:05.177Z,0.40
2023-03-11T18:10:32.675Z,0.50
2023-03-11T18:13:01.477Z,0.52
2023-03-11T18:15:29.047Z,0.50
2023-03-11T18:17:57.836Z,0.40
2023-03-11T18:20:25.531Z,0.50
2023-03-11T18:22:52.986Z,0.50
2023-03-11T18:25:20.443Z,0.40
2023-03-11T18:27:47.866Z,0.40
2023-03-11T18:30:16.827Z,0.50
2023-03-11T18:32:49.427Z,0.40
2023-03-11T18:35:17.621Z,0.40
2023-03-11T18:37:45.079Z,0.40
2023-03-11T18:40:13.234Z,0.45
2023-03-11T18:42:41.778Z,0.60
2023-03-11T18:45:12.035Z,0.52
2023-03-11T18:47:40.935Z,0.57
2023-03-11T18:50:08.758Z,0.38
2023-03-11T18:52:36.191Z,0.50
2023-03-11T18:55:03.632Z,0.40
2023-03-11T18:57:31.064Z,0.45
2023-03-11T18:59:58.498Z,0.50
2023-03-11T19:02:26.307Z,0.50
2023-03-11T19:04:55.203Z,0.60
2023-03-11T19:07:22.713Z,0.60
2023-03-11T19:09:50.337Z,0.63
2023-03-11T19:12:17.912Z,0.57
2023-03-11T19:14:45.363Z,0.60
2023-03-11T19:17:13.092Z,0.52
2023-03-11T19:19:40.573Z,0.50
2023-03-11T19:22:09.398Z,0.50
2023-03-11T19:24:36.840Z,0.45
2023-03-11T19:27:04.382Z,0.73
2023-03-11T19:29:31.792Z,0.50
2023-03-11T19:31:59.260Z,0.57
2023-03-11T19:34:27.117Z,0.45
2023-03-11T19:36:54.562Z,0.43
2023-03-11T19:39:23.383Z,0.50
2023-03-11T19:41:50.813Z,0.40
2023-03-11T19:44:18.312Z,0.50
2023-03-11T19:46:45.851Z,0.40
2023-03-11T19:49:13.429Z,0.57
2023-03-11T19:51:49.531Z,0.50
2023-03-11T19:54:17.883Z,0.57
2023-03-11T19:56:47.900Z,0.45
2023-03-11T19:59:15.561Z,0.55
2023-03-11T20:01:43.340Z,0.60
2023-03-11T20:04:11.201Z,0.60
2023-03-11T20:06:38.829Z,0.70
2023-03-11T20:09:06.852Z,0.50
2023-03-11T20:11:34.494Z,0.50
2023-03-11T20:14:03.381Z,0.68
2023-03-11T20:16:30.997Z,0.50
2023-03-11T20:18:58.474Z,0.55
2023-03-11T20:21:25.912Z,0.50
2023-03-11T20:23:54.774Z,0.50
2023-03-11T20:26:22.362Z,0.60
2023-03-11T20:28:50.196Z,0.60
2023-03-11T20:31:20.770Z,0.60
2023-03-11T20:33:48.970Z,0.60
2023-03-11T20:36:17.552Z,0.70
2023-03-11T20:38:45.095Z,0.60
2023-03-11T20:41:12.595Z,0.70
2023-03-11T20:43:40.277Z,0.60
2023-03-11T20:46:08.734Z,0.70
2023-03-11T20:48:38.191Z,0.60
2023-03-11T20:51:07.317Z,0.50
2023-03-11T20:53:35.311Z,0.70
2023-03-11T20:56:07.174Z,0.40
2023-03-11T20:58:34.749Z,0.52
2023-03-11T21:01:02.716Z,0.63
2023-03-11T21:03:30.219Z,0.65
2023-03-11T21:05:59.040Z,0.50
2023-03-11T21:08:26.493Z,0.60
2023-03-11T21:10:59.297Z,0.60
2023-03-11T21:13:26.906Z,0.60
2023-03-11T21:15:54.992Z,0.68
2023-03-11T21:18:22.706Z,0.70
2023-03-11T21:20:50.206Z,0.70
2023-03-11T21:23:19.060Z,0.60
2023-03-11T21:25:46.496Z,0.63
2023-03-11T21:28:14.723Z,0.80
2023-03-11T21:30:42.463Z,0.63
2023-03-11T21:33:10.038Z,0.55
2023-03-11T21:35:37.642Z,0.50
2023-03-11T21:38:05.141Z,0.70
2023-03-11T21:40:34.078Z,0.63
2023-03-11T21:43:01.587Z,0.60
2023-03-11T21:45:29.061Z,0.70
2023-03-11T21:47:56.672Z,0.82
2023-03-11T21:50:24.741Z,0.70
2023-03-11T21:52:52.214Z,0.60
2023-03-11T21:55:19.768Z,0.57
2023-03-11T21:57:48.535Z,0.60
2023-03-11T22:00:16.452Z,0.60
2023-03-11T22:02:44.072Z,0.60
2023-03-11T22:05:16.697Z,0.70
2023-03-11T22:07:44.234Z,0.70
2023-03-11T22:10:12.398Z,0.65
2023-03-11T22:12:39.929Z,0.52
2023-03-11T22:15:09.663Z,0.70
2023-03-11T22:17:37.353Z,0.50
2023-03-11T22:20:06.593Z,0.50
2023-03-11T22:22:34.297Z,0.70
2023-03-11T22:25:02.358Z,0.50
2023-03-11T22:27:29.851Z,0.67
2023-03-11T22:29:57.654Z,0.60
2023-03-11T22:32:26.474Z,0.53
2023-03-11T22:34:53.914Z,0.60
2023-03-11T22:37:21.373Z,0.70
2023-03-11T22:39:48.805Z,0.60
2023-03-11T22:42:16.291Z,0.50
2023-03-11T22:44:43.701Z,0.50
2023-03-11T22:47:11.140Z,0.63
2023-03-11T22:49:39.932Z,0.67
2023-03-11T22:52:07.343Z,0.63
2023-03-11T22:54:34.803Z,0.70
2023-03-11T22:57:26.243Z,0.70
2023-03-11T22:59:53.739Z,0.70
2023-03-11T23:02:46.384Z,0.70
2023-03-11T23:05:15.990Z,0.80
2023-03-11T23:07:43.544Z,0.60
2023-03-11T23:10:12.288Z,0.52
2023-03-11T23:12:39.761Z,0.50
2023-03-11T23:15:33.201Z,0.70
2023-03-11T23:18:00.617Z,0.50
2023-03-11T23:20:29.531Z,0.70
2023-03-11T23:22:57.014Z,0.70
2023-03-11T23:25:24.584Z,0.70
2023-03-11T23:27:52.028Z,0.70
2023-03-11T23:30:19.488Z,0.70
2023-03-11T23:32:47.016Z,0.70
2023-03-11T23:35:14.499Z,0.60
2023-03-11T23:37:43.282Z,0.73
2023-03-11T23:40:11.384Z,0.68
2023-03-11T23:42:38.844Z,0.50
2023-03-11T23:45:06.727Z,0.70
2023-03-11T23:47:34.200Z,0.60
2023-03-11T23:50:01.682Z,0.70
2023-03-11T23:52:29.148Z,0.70
2023-03-11T23:54:57.982Z,1.17
2023-03-11T23:57:25.414Z,0.60
2023-03-11T23:59:52.926Z,0.60
